<?xml version="1.0" encoding="UTF-8" standalone="no" ?>
<gpx xmlns="http://www.topografix.com/GPX/1/1" xmlns:xsi="http://www.w3.org/2001/XMLSchema-instance" xsi:schemaLocation="http://www.topografix.com/GPX/1/1 http://www.topografix.com/GPX/1/1/gpx.xsd" version="1.1" creator="VisuGPX - https://www.visugpx.com">
  <metadata>
    <name>Pramousquier-Hyeres</name>
    <desc><![CDATA[Pramousquier-Hyères par la piste cyclable, voie verte, du littoral.]]></desc>
  </metadata>
  <trk>
    <name><![CDATA[ACTIVE LOG- 29 JUL 2011 10-38-MNT]]></name>
    <trkseg>
      <trkpt lat="43.14934" lon="6.4174">
        <ele>37.6996</ele>
        <time>2011-07-29T08:38:11Z</time>
      </trkpt>
      <trkpt lat="43.14939" lon="6.41684">
        <ele>29.349953</ele>
        <time>2011-07-29T08:38:33Z</time>
      </trkpt>
      <trkpt lat="43.14948" lon="6.41632">
        <ele>28.252501</ele>
        <time>2011-07-29T08:39:20Z</time>
      </trkpt>
      <trkpt lat="43.14952" lon="6.41567">
        <ele>25.965328</ele>
        <time>2011-07-29T08:39:35Z</time>
      </trkpt>
      <trkpt lat="43.14959" lon="6.41507">
        <ele>24.254499</ele>
        <time>2011-07-29T08:39:48Z</time>
      </trkpt>
      <trkpt lat="43.14975" lon="6.41438">
        <ele>25.399063</ele>
        <time>2011-07-29T08:39:58Z</time>
      </trkpt>
      <trkpt lat="43.15" lon="6.41379">
        <ele>26.51</ele>
        <time>2011-07-29T08:40:08Z</time>
      </trkpt>
      <trkpt lat="43.15021" lon="6.41323">
        <ele>25.686251</ele>
        <time>2011-07-29T08:40:19Z</time>
      </trkpt>
      <trkpt lat="43.15029" lon="6.41258">
        <ele>24.035</ele>
        <time>2011-07-29T08:40:29Z</time>
      </trkpt>
      <trkpt lat="43.15016" lon="6.412">
        <ele>23.078253</ele>
        <time>2011-07-29T08:40:40Z</time>
      </trkpt>
      <trkpt lat="43.14997" lon="6.41141">
        <ele>23.333124</ele>
        <time>2011-07-29T08:40:50Z</time>
      </trkpt>
      <trkpt lat="43.14969" lon="6.41086">
        <ele>19.413124</ele>
        <time>2011-07-29T08:40:58Z</time>
      </trkpt>
      <trkpt lat="43.1494" lon="6.41034">
        <ele>21.41489</ele>
        <time>2011-07-29T08:41:06Z</time>
      </trkpt>
      <trkpt lat="43.14924" lon="6.4097">
        <ele>24.511049</ele>
        <time>2011-07-29T08:41:15Z</time>
      </trkpt>
      <trkpt lat="43.14926" lon="6.40895">
        <ele>19.324827</ele>
        <time>2011-07-29T08:41:23Z</time>
      </trkpt>
      <trkpt lat="43.1493" lon="6.40828">
        <ele>13.770703</ele>
        <time>2011-07-29T08:41:30Z</time>
      </trkpt>
      <trkpt lat="43.14941" lon="6.40762">
        <ele>14.132731</ele>
        <time>2011-07-29T08:41:39Z</time>
      </trkpt>
      <trkpt lat="43.14952" lon="6.40697">
        <ele>15.212769</ele>
        <time>2011-07-29T08:41:57Z</time>
      </trkpt>
      <trkpt lat="43.1496" lon="6.40635">
        <ele>13.359015</ele>
        <time>2011-07-29T08:42:11Z</time>
      </trkpt>
      <trkpt lat="43.14967" lon="6.40569">
        <ele>8.927137</ele>
        <time>2011-07-29T08:42:28Z</time>
      </trkpt>
      <trkpt lat="43.14976" lon="6.40503">
        <ele>6.225213</ele>
        <time>2011-07-29T08:42:49Z</time>
      </trkpt>
      <trkpt lat="43.14977" lon="6.40532">
        <ele>8.101525</ele>
        <time>2011-07-29T08:43:20Z</time>
      </trkpt>
      <trkpt lat="43.14972" lon="6.40595">
        <ele>12.816969</ele>
        <time>2011-07-29T08:43:36Z</time>
      </trkpt>
      <trkpt lat="43.14959" lon="6.40657">
        <ele>14.605288</ele>
        <time>2011-07-29T08:43:54Z</time>
      </trkpt>
      <trkpt lat="43.14955" lon="6.4072">
        <ele>16.419168</ele>
        <time>2011-07-29T08:44:10Z</time>
      </trkpt>
      <trkpt lat="43.14942" lon="6.40693">
        <ele>13.47885</ele>
        <time>2011-07-29T08:44:28Z</time>
      </trkpt>
      <trkpt lat="43.14954" lon="6.40626">
        <ele>11.543459</ele>
        <time>2011-07-29T08:44:37Z</time>
      </trkpt>
      <trkpt lat="43.14957" lon="6.40561">
        <ele>6.60525</ele>
        <time>2011-07-29T08:44:44Z</time>
      </trkpt>
      <trkpt lat="43.14966" lon="6.40499">
        <ele>4.562938</ele>
        <time>2011-07-29T08:44:50Z</time>
      </trkpt>
      <trkpt lat="43.14981" lon="6.40433">
        <ele>3.6048</ele>
        <time>2011-07-29T08:44:58Z</time>
      </trkpt>
      <trkpt lat="43.14984" lon="6.40364">
        <ele>2.056097</ele>
        <time>2011-07-29T08:45:06Z</time>
      </trkpt>
      <trkpt lat="43.14983" lon="6.40303">
        <ele>1.235</ele>
        <time>2011-07-29T08:45:17Z</time>
      </trkpt>
      <trkpt lat="43.14978" lon="6.40239">
        <ele>2.01745</ele>
        <time>2011-07-29T08:45:32Z</time>
      </trkpt>
      <trkpt lat="43.14973" lon="6.40176">
        <ele>2.9675</ele>
        <time>2011-07-29T08:45:47Z</time>
      </trkpt>
      <trkpt lat="43.14954" lon="6.40118">
        <ele>4.944953</ele>
        <time>2011-07-29T08:46:09Z</time>
      </trkpt>
      <trkpt lat="43.14911" lon="6.40099">
        <ele>4.474406</ele>
        <time>2011-07-29T08:46:27Z</time>
      </trkpt>
      <trkpt lat="43.14866" lon="6.40105">
        <ele>5.073225</ele>
        <time>2011-07-29T08:46:46Z</time>
      </trkpt>
      <trkpt lat="43.14824" lon="6.40077">
        <ele>8.62</ele>
        <time>2011-07-29T08:47:07Z</time>
      </trkpt>
      <trkpt lat="43.14796" lon="6.40031">
        <ele>11.274406</ele>
        <time>2011-07-29T08:48:21Z</time>
      </trkpt>
      <trkpt lat="43.14771" lon="6.39977">
        <ele>13.853063</ele>
        <time>2011-07-29T08:49:06Z</time>
      </trkpt>
      <trkpt lat="43.14745" lon="6.39927">
        <ele>11.6527</ele>
        <time>2011-07-29T08:49:22Z</time>
      </trkpt>
      <trkpt lat="43.14718" lon="6.39877">
        <ele>13.5965</ele>
        <time>2011-07-29T08:49:37Z</time>
      </trkpt>
      <trkpt lat="43.14682" lon="6.39838">
        <ele>14.31625</ele>
        <time>2011-07-29T08:49:50Z</time>
      </trkpt>
      <trkpt lat="43.14646" lon="6.39804">
        <ele>18.255001</ele>
        <time>2011-07-29T08:50:01Z</time>
      </trkpt>
      <trkpt lat="43.14615" lon="6.39743">
        <ele>24.672579</ele>
        <time>2011-07-29T08:50:10Z</time>
      </trkpt>
      <trkpt lat="43.1461" lon="6.39682">
        <ele>22.1898</ele>
        <time>2011-07-29T08:50:18Z</time>
      </trkpt>
      <trkpt lat="43.14624" lon="6.39612">
        <ele>13.765375</ele>
        <time>2011-07-29T08:50:26Z</time>
      </trkpt>
      <trkpt lat="43.14648" lon="6.39554">
        <ele>9.588575</ele>
        <time>2011-07-29T08:50:37Z</time>
      </trkpt>
      <trkpt lat="43.14656" lon="6.3949">
        <ele>4.84925</ele>
        <time>2011-07-29T08:50:47Z</time>
      </trkpt>
      <trkpt lat="43.1465" lon="6.39427">
        <ele>1.990106</ele>
        <time>2011-07-29T08:50:58Z</time>
      </trkpt>
      <trkpt lat="43.14628" lon="6.39372">
        <ele>6.46</ele>
        <time>2011-07-29T08:51:10Z</time>
      </trkpt>
      <trkpt lat="43.14595" lon="6.39333">
        <ele>11.301631</ele>
        <time>2011-07-29T08:51:27Z</time>
      </trkpt>
      <trkpt lat="43.14558" lon="6.39292">
        <ele>12.893281</ele>
        <time>2011-07-29T08:51:45Z</time>
      </trkpt>
      <trkpt lat="43.14527" lon="6.39243">
        <ele>15.443375</ele>
        <time>2011-07-29T08:52:02Z</time>
      </trkpt>
      <trkpt lat="43.14507" lon="6.39185">
        <ele>18.688749</ele>
        <time>2011-07-29T08:52:18Z</time>
      </trkpt>
      <trkpt lat="43.14488" lon="6.39127">
        <ele>20.476563</ele>
        <time>2011-07-29T08:52:33Z</time>
      </trkpt>
      <trkpt lat="43.14472" lon="6.39063">
        <ele>23.135</ele>
        <time>2011-07-29T08:52:48Z</time>
      </trkpt>
      <trkpt lat="43.14459" lon="6.38999">
        <ele>22.455</ele>
        <time>2011-07-29T08:53:01Z</time>
      </trkpt>
      <trkpt lat="43.14461" lon="6.38935">
        <ele>22.057499</ele>
        <time>2011-07-29T08:53:41Z</time>
      </trkpt>
      <trkpt lat="43.14475" lon="6.38873">
        <ele>19.328493</ele>
        <time>2011-07-29T08:53:51Z</time>
      </trkpt>
      <trkpt lat="43.14503" lon="6.38819">
        <ele>18.696501</ele>
        <time>2011-07-29T08:54:00Z</time>
      </trkpt>
      <trkpt lat="43.14527" lon="6.3876">
        <ele>18.173388</ele>
        <time>2011-07-29T08:54:09Z</time>
      </trkpt>
      <trkpt lat="43.1454" lon="6.38701">
        <ele>17.460312</ele>
        <time>2011-07-29T08:54:17Z</time>
      </trkpt>
      <trkpt lat="43.14538" lon="6.38634">
        <ele>16.770079</ele>
        <time>2011-07-29T08:54:25Z</time>
      </trkpt>
      <trkpt lat="43.14522" lon="6.38574">
        <ele>17.92</ele>
        <time>2011-07-29T08:54:33Z</time>
      </trkpt>
      <trkpt lat="43.14509" lon="6.38511">
        <ele>18.391624</ele>
        <time>2011-07-29T08:54:41Z</time>
      </trkpt>
      <trkpt lat="43.14491" lon="6.3844">
        <ele>14.095613</ele>
        <time>2011-07-29T08:54:49Z</time>
      </trkpt>
      <trkpt lat="43.14478" lon="6.38367">
        <ele>8.3875</ele>
        <time>2011-07-29T08:54:57Z</time>
      </trkpt>
      <trkpt lat="43.14477" lon="6.38299">
        <ele>6.235469</ele>
        <time>2011-07-29T08:55:29Z</time>
      </trkpt>
      <trkpt lat="43.14477" lon="6.38233">
        <ele>6</ele>
        <time>2011-07-29T08:55:38Z</time>
      </trkpt>
      <trkpt lat="43.14477" lon="6.38168">
        <ele>6.006688</ele>
        <time>2011-07-29T08:55:48Z</time>
      </trkpt>
      <trkpt lat="43.14479" lon="6.38105">
        <ele>6.0175</ele>
        <time>2011-07-29T08:55:56Z</time>
      </trkpt>
      <trkpt lat="43.14474" lon="6.38041">
        <ele>6</ele>
        <time>2011-07-29T08:56:05Z</time>
      </trkpt>
      <trkpt lat="43.14462" lon="6.37984">
        <ele>6</ele>
        <time>2011-07-29T08:56:18Z</time>
      </trkpt>
      <trkpt lat="43.14441" lon="6.37949">
        <ele>6</ele>
        <time>2011-07-29T08:57:14Z</time>
      </trkpt>
      <trkpt lat="43.14399" lon="6.3792">
        <ele>6.22125</ele>
        <time>2011-07-29T08:57:30Z</time>
      </trkpt>
      <trkpt lat="43.14355" lon="6.37905">
        <ele>7.166775</ele>
        <time>2011-07-29T08:57:45Z</time>
      </trkpt>
      <trkpt lat="43.1431" lon="6.37906">
        <ele>11.051212</ele>
        <time>2011-07-29T08:58:00Z</time>
      </trkpt>
      <trkpt lat="43.14263" lon="6.37905">
        <ele>11.718938</ele>
        <time>2011-07-29T08:58:16Z</time>
      </trkpt>
      <trkpt lat="43.14213" lon="6.37907">
        <ele>9.058544</ele>
        <time>2011-07-29T08:58:30Z</time>
      </trkpt>
      <trkpt lat="43.14169" lon="6.37925">
        <ele>7.7582</ele>
        <time>2011-07-29T08:58:44Z</time>
      </trkpt>
      <trkpt lat="43.14125" lon="6.37932">
        <ele>7.116763</ele>
        <time>2011-07-29T08:58:55Z</time>
      </trkpt>
      <trkpt lat="43.14081" lon="6.37955">
        <ele>6.115875</ele>
        <time>2011-07-29T08:59:07Z</time>
      </trkpt>
      <trkpt lat="43.14036" lon="6.37975">
        <ele>6.77625</ele>
        <time>2011-07-29T08:59:24Z</time>
      </trkpt>
      <trkpt lat="43.13993" lon="6.37996">
        <ele>11.42175</ele>
        <time>2011-07-29T08:59:42Z</time>
      </trkpt>
      <trkpt lat="43.13947" lon="6.38004">
        <ele>16.620001</ele>
        <time>2011-07-29T09:00:00Z</time>
      </trkpt>
      <trkpt lat="43.13902" lon="6.37982">
        <ele>20.387501</ele>
        <time>2011-07-29T09:00:18Z</time>
      </trkpt>
      <trkpt lat="43.13869" lon="6.37935">
        <ele>17.856075</ele>
        <time>2011-07-29T09:00:36Z</time>
      </trkpt>
      <trkpt lat="43.13854" lon="6.37872">
        <ele>19.994387</ele>
        <time>2011-07-29T09:00:54Z</time>
      </trkpt>
      <trkpt lat="43.13848" lon="6.37807">
        <ele>24.220325</ele>
        <time>2011-07-29T09:01:10Z</time>
      </trkpt>
      <trkpt lat="43.1385" lon="6.37743">
        <ele>28.81625</ele>
        <time>2011-07-29T09:01:22Z</time>
      </trkpt>
      <trkpt lat="43.13851" lon="6.3768">
        <ele>27.295</ele>
        <time>2011-07-29T09:01:35Z</time>
      </trkpt>
      <trkpt lat="43.13832" lon="6.37615">
        <ele>23.141537</ele>
        <time>2011-07-29T09:01:46Z</time>
      </trkpt>
      <trkpt lat="43.13818" lon="6.37575">
        <ele>22.931999</ele>
        <time>2011-07-29T09:02:35Z</time>
      </trkpt>
      <trkpt lat="43.1381" lon="6.37511">
        <ele>22.455774</ele>
        <time>2011-07-29T09:02:45Z</time>
      </trkpt>
      <trkpt lat="43.13822" lon="6.37448">
        <ele>19.837931</ele>
        <time>2011-07-29T09:02:53Z</time>
      </trkpt>
      <trkpt lat="43.13853" lon="6.37399">
        <ele>17.9575</ele>
        <time>2011-07-29T09:03:00Z</time>
      </trkpt>
      <trkpt lat="43.13879" lon="6.37344">
        <ele>16.5</ele>
        <time>2011-07-29T09:03:08Z</time>
      </trkpt>
      <trkpt lat="43.13894" lon="6.37288">
        <ele>12.726557</ele>
        <time>2011-07-29T09:03:46Z</time>
      </trkpt>
      <trkpt lat="43.13889" lon="6.37225">
        <ele>10.13875</ele>
        <time>2011-07-29T09:04:02Z</time>
      </trkpt>
      <trkpt lat="43.13892" lon="6.37163">
        <ele>10.729656</ele>
        <time>2011-07-29T09:04:28Z</time>
      </trkpt>
      <trkpt lat="43.13895" lon="6.37097">
        <ele>10.6279</ele>
        <time>2011-07-29T09:04:41Z</time>
      </trkpt>
      <trkpt lat="43.13902" lon="6.37031">
        <ele>10.9435</ele>
        <time>2011-07-29T09:04:51Z</time>
      </trkpt>
      <trkpt lat="43.13908" lon="6.36967">
        <ele>11.04725</ele>
        <time>2011-07-29T09:05:00Z</time>
      </trkpt>
      <trkpt lat="43.13894" lon="6.36907">
        <ele>12.52625</ele>
        <time>2011-07-29T09:05:11Z</time>
      </trkpt>
      <trkpt lat="43.13868" lon="6.36859">
        <ele>15.11355</ele>
        <time>2011-07-29T09:05:22Z</time>
      </trkpt>
      <trkpt lat="43.13842" lon="6.36806">
        <ele>16.058775</ele>
        <time>2011-07-29T09:05:33Z</time>
      </trkpt>
      <trkpt lat="43.13827" lon="6.36744">
        <ele>17.113125</ele>
        <time>2011-07-29T09:05:43Z</time>
      </trkpt>
      <trkpt lat="43.13824" lon="6.36678">
        <ele>17.307405</ele>
        <time>2011-07-29T09:05:53Z</time>
      </trkpt>
      <trkpt lat="43.13823" lon="6.36615">
        <ele>15.407363</ele>
        <time>2011-07-29T09:06:25Z</time>
      </trkpt>
      <trkpt lat="43.13819" lon="6.36551">
        <ele>10.8014</ele>
        <time>2011-07-29T09:07:30Z</time>
      </trkpt>
      <trkpt lat="43.13819" lon="6.36488">
        <ele>10.81375</ele>
        <time>2011-07-29T09:07:40Z</time>
      </trkpt>
      <trkpt lat="43.13816" lon="6.36419">
        <ele>10.6325</ele>
        <time>2011-07-29T09:07:47Z</time>
      </trkpt>
      <trkpt lat="43.13814" lon="6.36351">
        <ele>8.732644</ele>
        <time>2011-07-29T09:07:54Z</time>
      </trkpt>
      <trkpt lat="43.13815" lon="6.36283">
        <ele>8.6005</ele>
        <time>2011-07-29T09:08:01Z</time>
      </trkpt>
      <trkpt lat="43.13834" lon="6.36219">
        <ele>9.890594</ele>
        <time>2011-07-29T09:08:09Z</time>
      </trkpt>
      <trkpt lat="43.13861" lon="6.36167">
        <ele>10.9925</ele>
        <time>2011-07-29T09:08:18Z</time>
      </trkpt>
      <trkpt lat="43.13885" lon="6.36114">
        <ele>11.9775</ele>
        <time>2011-07-29T09:08:29Z</time>
      </trkpt>
      <trkpt lat="43.13909" lon="6.3606">
        <ele>12.5475</ele>
        <time>2011-07-29T09:08:41Z</time>
      </trkpt>
      <trkpt lat="43.13931" lon="6.36003">
        <ele>12.817594</ele>
        <time>2011-07-29T09:08:52Z</time>
      </trkpt>
      <trkpt lat="43.13944" lon="6.35939">
        <ele>11.050324</ele>
        <time>2011-07-29T09:09:02Z</time>
      </trkpt>
      <trkpt lat="43.13967" lon="6.35891">
        <ele>10.5732</ele>
        <time>2011-07-29T09:09:20Z</time>
      </trkpt>
      <trkpt lat="43.13947" lon="6.35836">
        <ele>8.3973</ele>
        <time>2011-07-29T09:09:31Z</time>
      </trkpt>
      <trkpt lat="43.13947" lon="6.35772">
        <ele>8.07951</ele>
        <time>2011-07-29T09:09:40Z</time>
      </trkpt>
      <trkpt lat="43.13939" lon="6.35707">
        <ele>8.704275</ele>
        <time>2011-07-29T09:09:51Z</time>
      </trkpt>
      <trkpt lat="43.13935" lon="6.35644">
        <ele>8.320237</ele>
        <time>2011-07-29T09:10:04Z</time>
      </trkpt>
      <trkpt lat="43.1393" lon="6.3558">
        <ele>8.837015</ele>
        <time>2011-07-29T09:10:19Z</time>
      </trkpt>
      <trkpt lat="43.13925" lon="6.35518">
        <ele>9</ele>
        <time>2011-07-29T09:10:35Z</time>
      </trkpt>
      <trkpt lat="43.13922" lon="6.35453">
        <ele>9.3423</ele>
        <time>2011-07-29T09:10:51Z</time>
      </trkpt>
      <trkpt lat="43.13922" lon="6.3539">
        <ele>10.20875</ele>
        <time>2011-07-29T09:11:07Z</time>
      </trkpt>
      <trkpt lat="43.1393" lon="6.35325">
        <ele>11.374</ele>
        <time>2011-07-29T09:11:23Z</time>
      </trkpt>
      <trkpt lat="43.13939" lon="6.3526">
        <ele>13.569718</ele>
        <time>2011-07-29T09:11:39Z</time>
      </trkpt>
      <trkpt lat="43.13951" lon="6.35202">
        <ele>15.279078</ele>
        <time>2011-07-29T09:11:56Z</time>
      </trkpt>
      <trkpt lat="43.13975" lon="6.3515">
        <ele>17.846613</ele>
        <time>2011-07-29T09:12:12Z</time>
      </trkpt>
      <trkpt lat="43.14013" lon="6.35113">
        <ele>19.701113</ele>
        <time>2011-07-29T09:12:27Z</time>
      </trkpt>
      <trkpt lat="43.14059" lon="6.35089">
        <ele>19.77125</ele>
        <time>2011-07-29T09:12:41Z</time>
      </trkpt>
      <trkpt lat="43.14104" lon="6.35067">
        <ele>19.219528</ele>
        <time>2011-07-29T09:12:54Z</time>
      </trkpt>
      <trkpt lat="43.14129" lon="6.35052">
        <ele>19.157694</ele>
        <time>2011-07-29T09:13:21Z</time>
      </trkpt>
      <trkpt lat="43.14163" lon="6.3501">
        <ele>18.365524</ele>
        <time>2011-07-29T09:13:35Z</time>
      </trkpt>
      <trkpt lat="43.14192" lon="6.3496">
        <ele>20.182913</ele>
        <time>2011-07-29T09:13:51Z</time>
      </trkpt>
      <trkpt lat="43.14215" lon="6.34911">
        <ele>23.34305</ele>
        <time>2011-07-29T09:14:06Z</time>
      </trkpt>
      <trkpt lat="43.14236" lon="6.34855">
        <ele>26.394026</ele>
        <time>2011-07-29T09:14:22Z</time>
      </trkpt>
      <trkpt lat="43.14257" lon="6.34797">
        <ele>28.991249</ele>
        <time>2011-07-29T09:14:38Z</time>
      </trkpt>
      <trkpt lat="43.14278" lon="6.34738">
        <ele>29.565737</ele>
        <time>2011-07-29T09:14:53Z</time>
      </trkpt>
      <trkpt lat="43.14301" lon="6.34683">
        <ele>31.188631</ele>
        <time>2011-07-29T09:15:07Z</time>
      </trkpt>
      <trkpt lat="43.14324" lon="6.34627">
        <ele>32.562576</ele>
        <time>2011-07-29T09:15:21Z</time>
      </trkpt>
      <trkpt lat="43.14348" lon="6.34575">
        <ele>32.584255</ele>
        <time>2011-07-29T09:15:32Z</time>
      </trkpt>
      <trkpt lat="43.14375" lon="6.3452">
        <ele>31.487906</ele>
        <time>2011-07-29T09:15:55Z</time>
      </trkpt>
      <trkpt lat="43.14401" lon="6.34463">
        <ele>29.926918</ele>
        <time>2011-07-29T09:16:40Z</time>
      </trkpt>
      <trkpt lat="43.14418" lon="6.34405">
        <ele>29.460501</ele>
        <time>2011-07-29T09:16:53Z</time>
      </trkpt>
      <trkpt lat="43.14429" lon="6.34345">
        <ele>29.170338</ele>
        <time>2011-07-29T09:17:06Z</time>
      </trkpt>
      <trkpt lat="43.14428" lon="6.3428">
        <ele>29.042213</ele>
        <time>2011-07-29T09:17:20Z</time>
      </trkpt>
      <trkpt lat="43.14417" lon="6.34216">
        <ele>29.85</ele>
        <time>2011-07-29T09:17:34Z</time>
      </trkpt>
      <trkpt lat="43.14424" lon="6.34164">
        <ele>31.618656</ele>
        <time>2011-07-29T09:17:48Z</time>
      </trkpt>
      <trkpt lat="43.1442" lon="6.34104">
        <ele>33.193752</ele>
        <time>2011-07-29T09:18:01Z</time>
      </trkpt>
      <trkpt lat="43.14384" lon="6.34064">
        <ele>32.504612</ele>
        <time>2011-07-29T09:18:12Z</time>
      </trkpt>
      <trkpt lat="43.14369" lon="6.34013">
        <ele>33.82</ele>
        <time>2011-07-29T09:18:24Z</time>
      </trkpt>
      <trkpt lat="43.14333" lon="6.33982">
        <ele>33.872501</ele>
        <time>2011-07-29T09:18:39Z</time>
      </trkpt>
      <trkpt lat="43.14311" lon="6.33922">
        <ele>37.167999</ele>
        <time>2011-07-29T09:18:55Z</time>
      </trkpt>
      <trkpt lat="43.14291" lon="6.33863">
        <ele>38.230164</ele>
        <time>2011-07-29T09:19:09Z</time>
      </trkpt>
      <trkpt lat="43.14292" lon="6.338">
        <ele>37.642601</ele>
        <time>2011-07-29T09:19:48Z</time>
      </trkpt>
      <trkpt lat="43.14289" lon="6.33735">
        <ele>32.661995</ele>
        <time>2011-07-29T09:20:05Z</time>
      </trkpt>
      <trkpt lat="43.14294" lon="6.3367">
        <ele>28.900944</ele>
        <time>2011-07-29T09:20:17Z</time>
      </trkpt>
      <trkpt lat="43.14299" lon="6.33607">
        <ele>27.1819</ele>
        <time>2011-07-29T09:20:29Z</time>
      </trkpt>
      <trkpt lat="43.14297" lon="6.33545">
        <ele>27.440437</ele>
        <time>2011-07-29T09:20:39Z</time>
      </trkpt>
      <trkpt lat="43.14286" lon="6.33483">
        <ele>28.747469</ele>
        <time>2011-07-29T09:20:49Z</time>
      </trkpt>
      <trkpt lat="43.14265" lon="6.33426">
        <ele>29.469156</ele>
        <time>2011-07-29T09:21:01Z</time>
      </trkpt>
      <trkpt lat="43.14246" lon="6.33373">
        <ele>29.12495</ele>
        <time>2011-07-29T09:21:15Z</time>
      </trkpt>
      <trkpt lat="43.14232" lon="6.3331">
        <ele>31.344</ele>
        <time>2011-07-29T09:21:30Z</time>
      </trkpt>
      <trkpt lat="43.14232" lon="6.33248">
        <ele>33.966118</ele>
        <time>2011-07-29T09:21:44Z</time>
      </trkpt>
      <trkpt lat="43.14248" lon="6.33187">
        <ele>38.037498</ele>
        <time>2011-07-29T09:22:00Z</time>
      </trkpt>
      <trkpt lat="43.1428" lon="6.33139">
        <ele>42.8372</ele>
        <time>2011-07-29T09:22:17Z</time>
      </trkpt>
      <trkpt lat="43.1432" lon="6.33108">
        <ele>45.514999</ele>
        <time>2011-07-29T09:22:33Z</time>
      </trkpt>
      <trkpt lat="43.1436" lon="6.33086">
        <ele>45.528324</ele>
        <time>2011-07-29T09:22:49Z</time>
      </trkpt>
      <trkpt lat="43.14411" lon="6.33065">
        <ele>45.596004</ele>
        <time>2011-07-29T09:23:04Z</time>
      </trkpt>
      <trkpt lat="43.14436" lon="6.33017">
        <ele>44.893749</ele>
        <time>2011-07-29T09:23:16Z</time>
      </trkpt>
      <trkpt lat="43.14456" lon="6.32962">
        <ele>46.368069</ele>
        <time>2011-07-29T09:23:28Z</time>
      </trkpt>
      <trkpt lat="43.1447" lon="6.32902">
        <ele>45.396381</ele>
        <time>2011-07-29T09:23:40Z</time>
      </trkpt>
      <trkpt lat="43.1448" lon="6.32841">
        <ele>44.265858</ele>
        <time>2011-07-29T09:23:50Z</time>
      </trkpt>
      <trkpt lat="43.14494" lon="6.32777">
        <ele>41.239944</ele>
        <time>2011-07-29T09:23:59Z</time>
      </trkpt>
      <trkpt lat="43.14515" lon="6.32722">
        <ele>41.166775</ele>
        <time>2011-07-29T09:24:07Z</time>
      </trkpt>
      <trkpt lat="43.14542" lon="6.32669">
        <ele>42.081501</ele>
        <time>2011-07-29T09:24:16Z</time>
      </trkpt>
      <trkpt lat="43.14568" lon="6.32618">
        <ele>39.805019</ele>
        <time>2011-07-29T09:25:02Z</time>
      </trkpt>
      <trkpt lat="43.14597" lon="6.32564">
        <ele>36.891182</ele>
        <time>2011-07-29T09:25:12Z</time>
      </trkpt>
      <trkpt lat="43.14622" lon="6.32512">
        <ele>34.52</ele>
        <time>2011-07-29T09:25:21Z</time>
      </trkpt>
      <trkpt lat="43.14638" lon="6.32456">
        <ele>32.810001</ele>
        <time>2011-07-29T09:25:32Z</time>
      </trkpt>
      <trkpt lat="43.14649" lon="6.32393">
        <ele>32.064999</ele>
        <time>2011-07-29T09:25:47Z</time>
      </trkpt>
      <trkpt lat="43.14659" lon="6.32329">
        <ele>33.061298</ele>
        <time>2011-07-29T09:26:01Z</time>
      </trkpt>
      <trkpt lat="43.14672" lon="6.32267">
        <ele>35.445</ele>
        <time>2011-07-29T09:26:13Z</time>
      </trkpt>
      <trkpt lat="43.14684" lon="6.32205">
        <ele>38.123451</ele>
        <time>2011-07-29T09:26:24Z</time>
      </trkpt>
      <trkpt lat="43.14696" lon="6.32139">
        <ele>39.594921</ele>
        <time>2011-07-29T09:26:33Z</time>
      </trkpt>
      <trkpt lat="43.14706" lon="6.32077">
        <ele>36.968094</ele>
        <time>2011-07-29T09:26:42Z</time>
      </trkpt>
      <trkpt lat="43.14698" lon="6.32015">
        <ele>29.585938</ele>
        <time>2011-07-29T09:27:26Z</time>
      </trkpt>
      <trkpt lat="43.14692" lon="6.3195">
        <ele>27.068569</ele>
        <time>2011-07-29T09:27:36Z</time>
      </trkpt>
      <trkpt lat="43.14685" lon="6.31888">
        <ele>29.735222</ele>
        <time>2011-07-29T09:27:47Z</time>
      </trkpt>
      <trkpt lat="43.1469" lon="6.31824">
        <ele>36.444454</ele>
        <time>2011-07-29T09:28:03Z</time>
      </trkpt>
      <trkpt lat="43.14708" lon="6.31766">
        <ele>44.021641</ele>
        <time>2011-07-29T09:28:19Z</time>
      </trkpt>
      <trkpt lat="43.14737" lon="6.31713">
        <ele>46.029037</ele>
        <time>2011-07-29T09:28:35Z</time>
      </trkpt>
      <trkpt lat="43.14766" lon="6.31664">
        <ele>46.083199</ele>
        <time>2011-07-29T09:28:50Z</time>
      </trkpt>
      <trkpt lat="43.14799" lon="6.31619">
        <ele>48.237499</ele>
        <time>2011-07-29T09:29:06Z</time>
      </trkpt>
      <trkpt lat="43.14836" lon="6.31583">
        <ele>49.315868</ele>
        <time>2011-07-29T09:29:20Z</time>
      </trkpt>
      <trkpt lat="43.14875" lon="6.31547">
        <ele>49.368752</ele>
        <time>2011-07-29T09:29:35Z</time>
      </trkpt>
      <trkpt lat="43.14912" lon="6.31512">
        <ele>49.207771</ele>
        <time>2011-07-29T09:29:50Z</time>
      </trkpt>
      <trkpt lat="43.14955" lon="6.3148">
        <ele>50.374287</ele>
        <time>2011-07-29T09:30:06Z</time>
      </trkpt>
      <trkpt lat="43.14993" lon="6.31442">
        <ele>51.903439</ele>
        <time>2011-07-29T09:30:20Z</time>
      </trkpt>
      <trkpt lat="43.1502" lon="6.31393">
        <ele>52.141624</ele>
        <time>2011-07-29T09:30:35Z</time>
      </trkpt>
      <trkpt lat="43.15033" lon="6.31331">
        <ele>52.275002</ele>
        <time>2011-07-29T09:30:51Z</time>
      </trkpt>
      <trkpt lat="43.15029" lon="6.31267">
        <ele>54.616249</ele>
        <time>2011-07-29T09:31:07Z</time>
      </trkpt>
      <trkpt lat="43.15021" lon="6.31203">
        <ele>57.965</ele>
        <time>2011-07-29T09:31:23Z</time>
      </trkpt>
      <trkpt lat="43.15018" lon="6.31141">
        <ele>60.355</ele>
        <time>2011-07-29T09:31:38Z</time>
      </trkpt>
      <trkpt lat="43.15027" lon="6.31083">
        <ele>60.611675</ele>
        <time>2011-07-29T09:31:53Z</time>
      </trkpt>
      <trkpt lat="43.15042" lon="6.31023">
        <ele>59.713661</ele>
        <time>2011-07-29T09:32:09Z</time>
      </trkpt>
      <trkpt lat="43.15047" lon="6.30952">
        <ele>62.366394</ele>
        <time>2011-07-29T09:32:26Z</time>
      </trkpt>
      <trkpt lat="43.15052" lon="6.30883">
        <ele>65.333496</ele>
        <time>2011-07-29T09:32:42Z</time>
      </trkpt>
      <trkpt lat="43.15048" lon="6.30813">
        <ele>70.066628</ele>
        <time>2011-07-29T09:32:59Z</time>
      </trkpt>
      <trkpt lat="43.15031" lon="6.30742">
        <ele>74.084579</ele>
        <time>2011-07-29T09:33:17Z</time>
      </trkpt>
      <trkpt lat="43.1501" lon="6.30671">
        <ele>77.022629</ele>
        <time>2011-07-29T09:33:35Z</time>
      </trkpt>
      <trkpt lat="43.14981" lon="6.30615">
        <ele>79.114098</ele>
        <time>2011-07-29T09:33:49Z</time>
      </trkpt>
      <trkpt lat="43.14949" lon="6.30569">
        <ele>81.146439</ele>
        <time>2011-07-29T09:34:05Z</time>
      </trkpt>
      <trkpt lat="43.14916" lon="6.30521">
        <ele>85.726402</ele>
        <time>2011-07-29T09:34:21Z</time>
      </trkpt>
      <trkpt lat="43.14889" lon="6.30466">
        <ele>87.247437</ele>
        <time>2011-07-29T09:34:37Z</time>
      </trkpt>
      <trkpt lat="43.14872" lon="6.30398">
        <ele>85.278</ele>
        <time>2011-07-29T09:34:55Z</time>
      </trkpt>
      <trkpt lat="43.14859" lon="6.30328">
        <ele>79.418427</ele>
        <time>2011-07-29T09:35:14Z</time>
      </trkpt>
      <trkpt lat="43.1486" lon="6.30258">
        <ele>76.518723</ele>
        <time>2011-07-29T09:35:24Z</time>
      </trkpt>
      <trkpt lat="43.14862" lon="6.3019">
        <ele>74.273064</ele>
        <time>2011-07-29T09:35:33Z</time>
      </trkpt>
      <trkpt lat="43.14866" lon="6.30117">
        <ele>72.435165</ele>
        <time>2011-07-29T09:35:42Z</time>
      </trkpt>
      <trkpt lat="43.14876" lon="6.30047">
        <ele>71.709404</ele>
        <time>2011-07-29T09:35:51Z</time>
      </trkpt>
      <trkpt lat="43.14892" lon="6.29986">
        <ele>70.058754</ele>
        <time>2011-07-29T09:35:59Z</time>
      </trkpt>
      <trkpt lat="43.14909" lon="6.29921">
        <ele>68.324997</ele>
        <time>2011-07-29T09:36:07Z</time>
      </trkpt>
      <trkpt lat="43.14928" lon="6.2986">
        <ele>67.763702</ele>
        <time>2011-07-29T09:36:15Z</time>
      </trkpt>
      <trkpt lat="43.14945" lon="6.29794">
        <ele>67.106247</ele>
        <time>2011-07-29T09:36:24Z</time>
      </trkpt>
      <trkpt lat="43.14962" lon="6.29735">
        <ele>65.160004</ele>
        <time>2011-07-29T09:36:32Z</time>
      </trkpt>
      <trkpt lat="43.14979" lon="6.29678">
        <ele>63.344963</ele>
        <time>2011-07-29T09:36:41Z</time>
      </trkpt>
      <trkpt lat="43.14985" lon="6.29615">
        <ele>61.095001</ele>
        <time>2011-07-29T09:36:52Z</time>
      </trkpt>
      <trkpt lat="43.14981" lon="6.29555">
        <ele>59.468548</ele>
        <time>2011-07-29T09:37:04Z</time>
      </trkpt>
      <trkpt lat="43.14973" lon="6.29493">
        <ele>67.708717</ele>
        <time>2011-07-29T09:37:19Z</time>
      </trkpt>
      <trkpt lat="43.14965" lon="6.29429">
        <ele>71.599419</ele>
        <time>2011-07-29T09:37:34Z</time>
      </trkpt>
      <trkpt lat="43.14956" lon="6.29366">
        <ele>72.283356</ele>
        <time>2011-07-29T09:37:54Z</time>
      </trkpt>
      <trkpt lat="43.14948" lon="6.29301">
        <ele>72.403748</ele>
        <time>2011-07-29T09:38:10Z</time>
      </trkpt>
      <trkpt lat="43.14942" lon="6.29236">
        <ele>71.660004</ele>
        <time>2011-07-29T09:38:25Z</time>
      </trkpt>
      <trkpt lat="43.14955" lon="6.29175">
        <ele>72.781982</ele>
        <time>2011-07-29T09:38:39Z</time>
      </trkpt>
      <trkpt lat="43.14978" lon="6.29122">
        <ele>72.830223</ele>
        <time>2011-07-29T09:38:52Z</time>
      </trkpt>
      <trkpt lat="43.14991" lon="6.2906">
        <ele>71.770798</ele>
        <time>2011-07-29T09:39:04Z</time>
      </trkpt>
      <trkpt lat="43.15005" lon="6.29003">
        <ele>71.964653</ele>
        <time>2011-07-29T09:39:19Z</time>
      </trkpt>
      <trkpt lat="43.15021" lon="6.28943">
        <ele>77.386345</ele>
        <time>2011-07-29T09:39:39Z</time>
      </trkpt>
      <trkpt lat="43.15034" lon="6.28883">
        <ele>82.308403</ele>
        <time>2011-07-29T09:39:57Z</time>
      </trkpt>
      <trkpt lat="43.15047" lon="6.28821">
        <ele>85.329498</ele>
        <time>2011-07-29T09:40:13Z</time>
      </trkpt>
      <trkpt lat="43.15057" lon="6.2876">
        <ele>88.195839</ele>
        <time>2011-07-29T09:40:27Z</time>
      </trkpt>
      <trkpt lat="43.15062" lon="6.28695">
        <ele>89.403816</ele>
        <time>2011-07-29T09:40:41Z</time>
      </trkpt>
      <trkpt lat="43.15062" lon="6.28637">
        <ele>89.505188</ele>
        <time>2011-07-29T09:40:53Z</time>
      </trkpt>
      <trkpt lat="43.15058" lon="6.28572">
        <ele>87.997238</ele>
        <time>2011-07-29T09:41:05Z</time>
      </trkpt>
      <trkpt lat="43.15047" lon="6.28499">
        <ele>87.594215</ele>
        <time>2011-07-29T09:41:14Z</time>
      </trkpt>
      <trkpt lat="43.15034" lon="6.28438">
        <ele>85.013344</ele>
        <time>2011-07-29T09:41:22Z</time>
      </trkpt>
      <trkpt lat="43.1502" lon="6.28381">
        <ele>83.451248</ele>
        <time>2011-07-29T09:41:30Z</time>
      </trkpt>
      <trkpt lat="43.15003" lon="6.28319">
        <ele>82.654404</ele>
        <time>2011-07-29T09:41:39Z</time>
      </trkpt>
      <trkpt lat="43.14988" lon="6.2826">
        <ele>80.417877</ele>
        <time>2011-07-29T09:41:47Z</time>
      </trkpt>
      <trkpt lat="43.14972" lon="6.28195">
        <ele>77.892723</ele>
        <time>2011-07-29T09:41:55Z</time>
      </trkpt>
      <trkpt lat="43.14957" lon="6.28136">
        <ele>76.996735</ele>
        <time>2011-07-29T09:42:02Z</time>
      </trkpt>
      <trkpt lat="43.14942" lon="6.28073">
        <ele>74.29686</ele>
        <time>2011-07-29T09:42:09Z</time>
      </trkpt>
      <trkpt lat="43.14927" lon="6.2801">
        <ele>73.822586</ele>
        <time>2011-07-29T09:42:16Z</time>
      </trkpt>
      <trkpt lat="43.1491" lon="6.27942">
        <ele>70.563751</ele>
        <time>2011-07-29T09:42:23Z</time>
      </trkpt>
      <trkpt lat="43.14896" lon="6.27882">
        <ele>68.968521</ele>
        <time>2011-07-29T09:42:29Z</time>
      </trkpt>
      <trkpt lat="43.14885" lon="6.27821">
        <ele>68.445404</ele>
        <time>2011-07-29T09:42:35Z</time>
      </trkpt>
      <trkpt lat="43.14877" lon="6.27754">
        <ele>67.021812</ele>
        <time>2011-07-29T09:42:42Z</time>
      </trkpt>
      <trkpt lat="43.14869" lon="6.2769">
        <ele>64.504372</ele>
        <time>2011-07-29T09:42:49Z</time>
      </trkpt>
      <trkpt lat="43.14857" lon="6.27628">
        <ele>62.759422</ele>
        <time>2011-07-29T09:42:55Z</time>
      </trkpt>
      <trkpt lat="43.14849" lon="6.27563">
        <ele>61.623749</ele>
        <time>2011-07-29T09:43:01Z</time>
      </trkpt>
      <trkpt lat="43.14844" lon="6.275">
        <ele>61.151749</ele>
        <time>2011-07-29T09:43:07Z</time>
      </trkpt>
      <trkpt lat="43.14842" lon="6.27434">
        <ele>60.81625</ele>
        <time>2011-07-29T09:43:14Z</time>
      </trkpt>
      <trkpt lat="43.14836" lon="6.27369">
        <ele>60.28125</ele>
        <time>2011-07-29T09:43:22Z</time>
      </trkpt>
      <trkpt lat="43.14831" lon="6.27307">
        <ele>59.91375</ele>
        <time>2011-07-29T09:43:30Z</time>
      </trkpt>
      <trkpt lat="43.14823" lon="6.27242">
        <ele>59.924999</ele>
        <time>2011-07-29T09:43:43Z</time>
      </trkpt>
      <trkpt lat="43.14813" lon="6.27175">
        <ele>58.388752</ele>
        <time>2011-07-29T09:43:52Z</time>
      </trkpt>
      <trkpt lat="43.14811" lon="6.27102">
        <ele>55.625214</ele>
        <time>2011-07-29T09:43:58Z</time>
      </trkpt>
      <trkpt lat="43.14805" lon="6.27033">
        <ele>53.052555</ele>
        <time>2011-07-29T09:44:03Z</time>
      </trkpt>
      <trkpt lat="43.14801" lon="6.26961">
        <ele>50.100189</ele>
        <time>2011-07-29T09:44:09Z</time>
      </trkpt>
      <trkpt lat="43.14798" lon="6.26899">
        <ele>50.092358</ele>
        <time>2011-07-29T09:44:15Z</time>
      </trkpt>
      <trkpt lat="43.14791" lon="6.2683">
        <ele>49.647099</ele>
        <time>2011-07-29T09:44:22Z</time>
      </trkpt>
      <trkpt lat="43.14785" lon="6.26766">
        <ele>49.211609</ele>
        <time>2011-07-29T09:44:29Z</time>
      </trkpt>
      <trkpt lat="43.14778" lon="6.267">
        <ele>48.208752</ele>
        <time>2011-07-29T09:44:37Z</time>
      </trkpt>
      <trkpt lat="43.14772" lon="6.26633">
        <ele>47.510288</ele>
        <time>2011-07-29T09:44:45Z</time>
      </trkpt>
      <trkpt lat="43.14766" lon="6.26565">
        <ele>46.615002</ele>
        <time>2011-07-29T09:44:53Z</time>
      </trkpt>
      <trkpt lat="43.14761" lon="6.26501">
        <ele>44.516998</ele>
        <time>2011-07-29T09:45:02Z</time>
      </trkpt>
      <trkpt lat="43.14752" lon="6.26439">
        <ele>42.915657</ele>
        <time>2011-07-29T09:45:11Z</time>
      </trkpt>
      <trkpt lat="43.14744" lon="6.26371">
        <ele>43.616886</ele>
        <time>2011-07-29T09:45:19Z</time>
      </trkpt>
      <trkpt lat="43.14734" lon="6.26306">
        <ele>43.578125</ele>
        <time>2011-07-29T09:45:26Z</time>
      </trkpt>
      <trkpt lat="43.14723" lon="6.26241">
        <ele>43.749176</ele>
        <time>2011-07-29T09:45:33Z</time>
      </trkpt>
      <trkpt lat="43.14712" lon="6.26177">
        <ele>41.974594</ele>
        <time>2011-07-29T09:45:41Z</time>
      </trkpt>
      <trkpt lat="43.14699" lon="6.26111">
        <ele>40.412498</ele>
        <time>2011-07-29T09:45:50Z</time>
      </trkpt>
      <trkpt lat="43.14687" lon="6.26047">
        <ele>40.228622</ele>
        <time>2011-07-29T09:45:59Z</time>
      </trkpt>
      <trkpt lat="43.14677" lon="6.25986">
        <ele>39.244843</ele>
        <time>2011-07-29T09:46:07Z</time>
      </trkpt>
      <trkpt lat="43.14666" lon="6.25921">
        <ele>37.299809</ele>
        <time>2011-07-29T09:46:15Z</time>
      </trkpt>
      <trkpt lat="43.14639" lon="6.25868">
        <ele>37.882324</ele>
        <time>2011-07-29T09:46:24Z</time>
      </trkpt>
      <trkpt lat="43.14618" lon="6.25808">
        <ele>35.509998</ele>
        <time>2011-07-29T09:46:34Z</time>
      </trkpt>
      <trkpt lat="43.14598" lon="6.25753">
        <ele>33.010002</ele>
        <time>2011-07-29T09:46:42Z</time>
      </trkpt>
      <trkpt lat="43.14572" lon="6.257">
        <ele>32.349548</ele>
        <time>2011-07-29T09:46:50Z</time>
      </trkpt>
      <trkpt lat="43.1455" lon="6.2564">
        <ele>32.553356</ele>
        <time>2011-07-29T09:46:59Z</time>
      </trkpt>
      <trkpt lat="43.14529" lon="6.25582">
        <ele>30.525</ele>
        <time>2011-07-29T09:47:09Z</time>
      </trkpt>
      <trkpt lat="43.14506" lon="6.2552">
        <ele>28.578749</ele>
        <time>2011-07-29T09:47:19Z</time>
      </trkpt>
      <trkpt lat="43.14486" lon="6.25462">
        <ele>28.4</ele>
        <time>2011-07-29T09:47:27Z</time>
      </trkpt>
      <trkpt lat="43.14465" lon="6.25405">
        <ele>28.504999</ele>
        <time>2011-07-29T09:47:34Z</time>
      </trkpt>
      <trkpt lat="43.14444" lon="6.25348">
        <ele>28.906025</ele>
        <time>2011-07-29T09:47:41Z</time>
      </trkpt>
      <trkpt lat="43.14421" lon="6.25286">
        <ele>28.359999</ele>
        <time>2011-07-29T09:47:49Z</time>
      </trkpt>
      <trkpt lat="43.14399" lon="6.25225">
        <ele>27.904501</ele>
        <time>2011-07-29T09:47:58Z</time>
      </trkpt>
      <trkpt lat="43.14388" lon="6.25165">
        <ele>23.948015</ele>
        <time>2011-07-29T09:48:08Z</time>
      </trkpt>
      <trkpt lat="43.14387" lon="6.25099">
        <ele>20.263</ele>
        <time>2011-07-29T09:48:19Z</time>
      </trkpt>
      <trkpt lat="43.1439" lon="6.25036">
        <ele>22.872499</ele>
        <time>2011-07-29T09:48:30Z</time>
      </trkpt>
      <trkpt lat="43.14392" lon="6.24976">
        <ele>26.028891</ele>
        <time>2011-07-29T09:49:12Z</time>
      </trkpt>
      <trkpt lat="43.14381" lon="6.24917">
        <ele>28.60375</ele>
        <time>2011-07-29T09:49:28Z</time>
      </trkpt>
      <trkpt lat="43.14361" lon="6.24863">
        <ele>29.967501</ele>
        <time>2011-07-29T09:49:43Z</time>
      </trkpt>
      <trkpt lat="43.14329" lon="6.24821">
        <ele>30.51</ele>
        <time>2011-07-29T09:49:56Z</time>
      </trkpt>
      <trkpt lat="43.14296" lon="6.24775">
        <ele>31.061251</ele>
        <time>2011-07-29T09:50:11Z</time>
      </trkpt>
      <trkpt lat="43.14266" lon="6.24726">
        <ele>31.127501</ele>
        <time>2011-07-29T09:50:23Z</time>
      </trkpt>
      <trkpt lat="43.14241" lon="6.24668">
        <ele>30.637501</ele>
        <time>2011-07-29T09:50:36Z</time>
      </trkpt>
      <trkpt lat="43.14222" lon="6.24605">
        <ele>30.17</ele>
        <time>2011-07-29T09:50:47Z</time>
      </trkpt>
      <trkpt lat="43.14205" lon="6.24546">
        <ele>29.745001</ele>
        <time>2011-07-29T09:50:57Z</time>
      </trkpt>
      <trkpt lat="43.14186" lon="6.24481">
        <ele>28.699968</ele>
        <time>2011-07-29T09:51:07Z</time>
      </trkpt>
      <trkpt lat="43.14169" lon="6.24418">
        <ele>27.887444</ele>
        <time>2011-07-29T09:51:18Z</time>
      </trkpt>
      <trkpt lat="43.14152" lon="6.24355">
        <ele>27.41</ele>
        <time>2011-07-29T09:51:29Z</time>
      </trkpt>
      <trkpt lat="43.14133" lon="6.24295">
        <ele>27</ele>
        <time>2011-07-29T09:51:39Z</time>
      </trkpt>
      <trkpt lat="43.14115" lon="6.24237">
        <ele>26.6675</ele>
        <time>2011-07-29T09:51:49Z</time>
      </trkpt>
      <trkpt lat="43.14097" lon="6.24174">
        <ele>26.01627</ele>
        <time>2011-07-29T09:51:59Z</time>
      </trkpt>
      <trkpt lat="43.14079" lon="6.24112">
        <ele>25.602501</ele>
        <time>2011-07-29T09:52:09Z</time>
      </trkpt>
      <trkpt lat="43.14061" lon="6.24054">
        <ele>25.147499</ele>
        <time>2011-07-29T09:52:20Z</time>
      </trkpt>
      <trkpt lat="43.14046" lon="6.23993">
        <ele>24.891481</ele>
        <time>2011-07-29T09:52:32Z</time>
      </trkpt>
      <trkpt lat="43.14013" lon="6.23958">
        <ele>24.997723</ele>
        <time>2011-07-29T09:52:47Z</time>
      </trkpt>
      <trkpt lat="43.1397" lon="6.23923">
        <ele>24.626106</ele>
        <time>2011-07-29T09:52:58Z</time>
      </trkpt>
      <trkpt lat="43.13935" lon="6.2388">
        <ele>24.424</ele>
        <time>2011-07-29T09:53:08Z</time>
      </trkpt>
      <trkpt lat="43.13905" lon="6.23828">
        <ele>24.549549</ele>
        <time>2011-07-29T09:53:18Z</time>
      </trkpt>
      <trkpt lat="43.13882" lon="6.23768">
        <ele>24.981251</ele>
        <time>2011-07-29T09:53:28Z</time>
      </trkpt>
      <trkpt lat="43.13865" lon="6.23717">
        <ele>25.370001</ele>
        <time>2011-07-29T09:54:36Z</time>
      </trkpt>
      <trkpt lat="43.13857" lon="6.23664">
        <ele>25.3025</ele>
        <time>2011-07-29T09:54:55Z</time>
      </trkpt>
      <trkpt lat="43.13837" lon="6.23605">
        <ele>24.797501</ele>
        <time>2011-07-29T09:55:10Z</time>
      </trkpt>
      <trkpt lat="43.13818" lon="6.23546">
        <ele>24.141525</ele>
        <time>2011-07-29T09:55:24Z</time>
      </trkpt>
      <trkpt lat="43.138" lon="6.23487">
        <ele>23.355</ele>
        <time>2011-07-29T09:55:40Z</time>
      </trkpt>
      <trkpt lat="43.13792" lon="6.23436">
        <ele>22.313749</ele>
        <time>2011-07-29T09:57:18Z</time>
      </trkpt>
      <trkpt lat="43.13764" lon="6.23394">
        <ele>21.004999</ele>
        <time>2011-07-29T09:57:55Z</time>
      </trkpt>
      <trkpt lat="43.13745" lon="6.23335">
        <ele>18.639126</ele>
        <time>2011-07-29T09:58:10Z</time>
      </trkpt>
      <trkpt lat="43.13723" lon="6.23279">
        <ele>18.00214</ele>
        <time>2011-07-29T09:58:27Z</time>
      </trkpt>
      <trkpt lat="43.1372" lon="6.23209">
        <ele>17.8825</ele>
        <time>2011-07-29T09:58:45Z</time>
      </trkpt>
      <trkpt lat="43.13696" lon="6.2316">
        <ele>17.305</ele>
        <time>2011-07-29T09:58:57Z</time>
      </trkpt>
      <trkpt lat="43.13676" lon="6.23102">
        <ele>16.934557</ele>
        <time>2011-07-29T09:59:09Z</time>
      </trkpt>
      <trkpt lat="43.13656" lon="6.23044">
        <ele>17</ele>
        <time>2011-07-29T09:59:20Z</time>
      </trkpt>
      <trkpt lat="43.13637" lon="6.22985">
        <ele>17.598135</ele>
        <time>2011-07-29T09:59:31Z</time>
      </trkpt>
      <trkpt lat="43.1362" lon="6.22924">
        <ele>19.5375</ele>
        <time>2011-07-29T09:59:43Z</time>
      </trkpt>
      <trkpt lat="43.13598" lon="6.22872">
        <ele>21.32</ele>
        <time>2011-07-29T09:59:55Z</time>
      </trkpt>
      <trkpt lat="43.1357" lon="6.22819">
        <ele>22.139999</ele>
        <time>2011-07-29T10:00:09Z</time>
      </trkpt>
      <trkpt lat="43.13543" lon="6.22771">
        <ele>22.89875</ele>
        <time>2011-07-29T10:00:23Z</time>
      </trkpt>
      <trkpt lat="43.13512" lon="6.22718">
        <ele>23.723749</ele>
        <time>2011-07-29T10:00:37Z</time>
      </trkpt>
      <trkpt lat="43.13484" lon="6.22666">
        <ele>24.102747</ele>
        <time>2011-07-29T10:00:50Z</time>
      </trkpt>
      <trkpt lat="43.13454" lon="6.22615">
        <ele>24.3325</ele>
        <time>2011-07-29T10:01:03Z</time>
      </trkpt>
      <trkpt lat="43.13425" lon="6.22559">
        <ele>24.625813</ele>
        <time>2011-07-29T10:01:16Z</time>
      </trkpt>
      <trkpt lat="43.13403" lon="6.22504">
        <ele>23.928774</ele>
        <time>2011-07-29T10:01:30Z</time>
      </trkpt>
      <trkpt lat="43.13364" lon="6.2246">
        <ele>23.084406</ele>
        <time>2011-07-29T10:01:40Z</time>
      </trkpt>
      <trkpt lat="43.13338" lon="6.2241">
        <ele>22.74</ele>
        <time>2011-07-29T10:01:50Z</time>
      </trkpt>
      <trkpt lat="43.1331" lon="6.2236">
        <ele>22.381834</ele>
        <time>2011-07-29T10:02:01Z</time>
      </trkpt>
      <trkpt lat="43.13282" lon="6.22309">
        <ele>22.4275</ele>
        <time>2011-07-29T10:02:13Z</time>
      </trkpt>
      <trkpt lat="43.13252" lon="6.22256">
        <ele>21.7125</ele>
        <time>2011-07-29T10:02:25Z</time>
      </trkpt>
      <trkpt lat="43.13231" lon="6.22204">
        <ele>21.192499</ele>
        <time>2011-07-29T10:02:40Z</time>
      </trkpt>
      <trkpt lat="43.13198" lon="6.22162">
        <ele>20.424999</ele>
        <time>2011-07-29T10:02:54Z</time>
      </trkpt>
      <trkpt lat="43.13171" lon="6.22113">
        <ele>20.042538</ele>
        <time>2011-07-29T10:03:06Z</time>
      </trkpt>
      <trkpt lat="43.13143" lon="6.22062">
        <ele>20.860676</ele>
        <time>2011-07-29T10:03:17Z</time>
      </trkpt>
      <trkpt lat="43.13111" lon="6.22008">
        <ele>19.543749</ele>
        <time>2011-07-29T10:03:27Z</time>
      </trkpt>
      <trkpt lat="43.13077" lon="6.2196">
        <ele>17.809313</ele>
        <time>2011-07-29T10:03:36Z</time>
      </trkpt>
      <trkpt lat="43.13049" lon="6.21908">
        <ele>16.907499</ele>
        <time>2011-07-29T10:03:45Z</time>
      </trkpt>
      <trkpt lat="43.13019" lon="6.21855">
        <ele>16.44875</ele>
        <time>2011-07-29T10:03:55Z</time>
      </trkpt>
      <trkpt lat="43.12992" lon="6.21805">
        <ele>16.145</ele>
        <time>2011-07-29T10:04:05Z</time>
      </trkpt>
      <trkpt lat="43.12965" lon="6.21751">
        <ele>15.721459</ele>
        <time>2011-07-29T10:04:15Z</time>
      </trkpt>
      <trkpt lat="43.12935" lon="6.21714">
        <ele>14.529884</ele>
        <time>2011-07-29T10:04:37Z</time>
      </trkpt>
      <trkpt lat="43.12917" lon="6.2165">
        <ele>13.555</ele>
        <time>2011-07-29T10:04:48Z</time>
      </trkpt>
      <trkpt lat="43.12902" lon="6.21589">
        <ele>12.785</ele>
        <time>2011-07-29T10:04:58Z</time>
      </trkpt>
      <trkpt lat="43.12889" lon="6.21525">
        <ele>12.080653</ele>
        <time>2011-07-29T10:05:08Z</time>
      </trkpt>
      <trkpt lat="43.12878" lon="6.21456">
        <ele>11.515</ele>
        <time>2011-07-29T10:05:17Z</time>
      </trkpt>
      <trkpt lat="43.12866" lon="6.21389">
        <ele>11.220625</ele>
        <time>2011-07-29T10:05:26Z</time>
      </trkpt>
      <trkpt lat="43.12854" lon="6.21327">
        <ele>11.173906</ele>
        <time>2011-07-29T10:05:35Z</time>
      </trkpt>
      <trkpt lat="43.1284" lon="6.21265">
        <ele>10.745</ele>
        <time>2011-07-29T10:05:45Z</time>
      </trkpt>
      <trkpt lat="43.1283" lon="6.21204">
        <ele>10.49</ele>
        <time>2011-07-29T10:05:55Z</time>
      </trkpt>
      <trkpt lat="43.1282" lon="6.21144">
        <ele>10.31875</ele>
        <time>2011-07-29T10:06:05Z</time>
      </trkpt>
      <trkpt lat="43.12808" lon="6.21084">
        <ele>10.388938</ele>
        <time>2011-07-29T10:06:15Z</time>
      </trkpt>
      <trkpt lat="43.12796" lon="6.21019">
        <ele>10.155</ele>
        <time>2011-07-29T10:06:26Z</time>
      </trkpt>
      <trkpt lat="43.12785" lon="6.20959">
        <ele>9.966825</ele>
        <time>2011-07-29T10:06:36Z</time>
      </trkpt>
      <trkpt lat="43.12759" lon="6.20907">
        <ele>9.675</ele>
        <time>2011-07-29T10:06:46Z</time>
      </trkpt>
      <trkpt lat="43.12749" lon="6.20841">
        <ele>9.3825</ele>
        <time>2011-07-29T10:06:57Z</time>
      </trkpt>
      <trkpt lat="43.12739" lon="6.20781">
        <ele>9.11</ele>
        <time>2011-07-29T10:07:10Z</time>
      </trkpt>
      <trkpt lat="43.12729" lon="6.2072">
        <ele>8.773109</ele>
        <time>2011-07-29T10:07:22Z</time>
      </trkpt>
      <trkpt lat="43.12716" lon="6.20659">
        <ele>8.015</ele>
        <time>2011-07-29T10:07:33Z</time>
      </trkpt>
      <trkpt lat="43.12705" lon="6.20596">
        <ele>7.445</ele>
        <time>2011-07-29T10:07:46Z</time>
      </trkpt>
      <trkpt lat="43.12703" lon="6.20537">
        <ele>7.545609</ele>
        <time>2011-07-29T10:07:59Z</time>
      </trkpt>
      <trkpt lat="43.12685" lon="6.20482">
        <ele>7.422781</ele>
        <time>2011-07-29T10:08:09Z</time>
      </trkpt>
      <trkpt lat="43.12672" lon="6.20418">
        <ele>7.335</ele>
        <time>2011-07-29T10:08:17Z</time>
      </trkpt>
      <trkpt lat="43.1266" lon="6.20354">
        <ele>7.028856</ele>
        <time>2011-07-29T10:08:25Z</time>
      </trkpt>
      <trkpt lat="43.12658" lon="6.20291">
        <ele>6.92</ele>
        <time>2011-07-29T10:08:34Z</time>
      </trkpt>
      <trkpt lat="43.12644" lon="6.20227">
        <ele>6.7469</ele>
        <time>2011-07-29T10:08:44Z</time>
      </trkpt>
      <trkpt lat="43.12631" lon="6.20162">
        <ele>6.445</ele>
        <time>2011-07-29T10:08:54Z</time>
      </trkpt>
      <trkpt lat="43.12617" lon="6.20102">
        <ele>5.855</ele>
        <time>2011-07-29T10:09:04Z</time>
      </trkpt>
      <trkpt lat="43.12593" lon="6.20049">
        <ele>5.285</ele>
        <time>2011-07-29T10:09:17Z</time>
      </trkpt>
      <trkpt lat="43.12567" lon="6.19993">
        <ele>4.34</ele>
        <time>2011-07-29T10:09:27Z</time>
      </trkpt>
      <trkpt lat="43.12555" lon="6.19933">
        <ele>3.692563</ele>
        <time>2011-07-29T10:09:37Z</time>
      </trkpt>
      <trkpt lat="43.1257" lon="6.19876">
        <ele>3.665962</ele>
        <time>2011-07-29T10:09:49Z</time>
      </trkpt>
      <trkpt lat="43.12558" lon="6.19819">
        <ele>3.32</ele>
        <time>2011-07-29T10:09:59Z</time>
      </trkpt>
      <trkpt lat="43.12548" lon="6.19753">
        <ele>3.0575</ele>
        <time>2011-07-29T10:10:08Z</time>
      </trkpt>
      <trkpt lat="43.12538" lon="6.19691">
        <ele>2.785</ele>
        <time>2011-07-29T10:10:18Z</time>
      </trkpt>
      <trkpt lat="43.12532" lon="6.19625">
        <ele>2.585</ele>
        <time>2011-07-29T10:10:30Z</time>
      </trkpt>
      <trkpt lat="43.12525" lon="6.19557">
        <ele>2.25</ele>
        <time>2011-07-29T10:10:41Z</time>
      </trkpt>
      <trkpt lat="43.12518" lon="6.19495">
        <ele>1.1825</ele>
        <time>2011-07-29T10:10:51Z</time>
      </trkpt>
      <trkpt lat="43.12521" lon="6.19431">
        <ele>1.185</ele>
        <time>2011-07-29T10:11:02Z</time>
      </trkpt>
      <trkpt lat="43.12519" lon="6.19364">
        <ele>1.0875</ele>
        <time>2011-07-29T10:11:12Z</time>
      </trkpt>
      <trkpt lat="43.1252" lon="6.193">
        <ele>1.0675</ele>
        <time>2011-07-29T10:11:22Z</time>
      </trkpt>
      <trkpt lat="43.12523" lon="6.19234">
        <ele>1.0725</ele>
        <time>2011-07-29T10:11:33Z</time>
      </trkpt>
      <trkpt lat="43.12528" lon="6.19172">
        <ele>1.1475</ele>
        <time>2011-07-29T10:11:43Z</time>
      </trkpt>
      <trkpt lat="43.12532" lon="6.19106">
        <ele>1.258125</ele>
        <time>2011-07-29T10:11:55Z</time>
      </trkpt>
      <trkpt lat="43.1253" lon="6.19048">
        <ele>1.554806</ele>
        <time>2011-07-29T10:12:33Z</time>
      </trkpt>
      <trkpt lat="43.12498" lon="6.19002">
        <ele>1.47625</ele>
        <time>2011-07-29T10:12:44Z</time>
      </trkpt>
      <trkpt lat="43.12464" lon="6.18958">
        <ele>1.81</ele>
        <time>2011-07-29T10:12:54Z</time>
      </trkpt>
      <trkpt lat="43.1244" lon="6.18901">
        <ele>3.387088</ele>
        <time>2011-07-29T10:13:06Z</time>
      </trkpt>
      <trkpt lat="43.12428" lon="6.18847">
        <ele>4.431737</ele>
        <time>2011-07-29T10:13:36Z</time>
      </trkpt>
      <trkpt lat="43.12388" lon="6.18816">
        <ele>4.758547</ele>
        <time>2011-07-29T10:13:48Z</time>
      </trkpt>
      <trkpt lat="43.12349" lon="6.18785">
        <ele>4.34375</ele>
        <time>2011-07-29T10:13:58Z</time>
      </trkpt>
      <trkpt lat="43.12307" lon="6.18753">
        <ele>3.868641</ele>
        <time>2011-07-29T10:14:09Z</time>
      </trkpt>
      <trkpt lat="43.12267" lon="6.18724">
        <ele>3.397694</ele>
        <time>2011-07-29T10:14:25Z</time>
      </trkpt>
      <trkpt lat="43.12226" lon="6.18693">
        <ele>3.041384</ele>
        <time>2011-07-29T10:14:38Z</time>
      </trkpt>
      <trkpt lat="43.12186" lon="6.18663">
        <ele>3.269531</ele>
        <time>2011-07-29T10:14:49Z</time>
      </trkpt>
      <trkpt lat="43.12143" lon="6.1863">
        <ele>3.8075</ele>
        <time>2011-07-29T10:15:01Z</time>
      </trkpt>
      <trkpt lat="43.121" lon="6.18601">
        <ele>4.2225</ele>
        <time>2011-07-29T10:15:12Z</time>
      </trkpt>
      <trkpt lat="43.12054" lon="6.18592">
        <ele>3.750194</ele>
        <time>2011-07-29T10:15:23Z</time>
      </trkpt>
      <trkpt lat="43.12009" lon="6.18585">
        <ele>3.447337</ele>
        <time>2011-07-29T10:15:35Z</time>
      </trkpt>
      <trkpt lat="43.11962" lon="6.18577">
        <ele>2.973081</ele>
        <time>2011-07-29T10:15:46Z</time>
      </trkpt>
      <trkpt lat="43.11918" lon="6.1858">
        <ele>2.725</ele>
        <time>2011-07-29T10:15:56Z</time>
      </trkpt>
      <trkpt lat="43.11877" lon="6.18619">
        <ele>2.23165</ele>
        <time>2011-07-29T10:16:07Z</time>
      </trkpt>
      <trkpt lat="43.1184" lon="6.1866">
        <ele>1.566375</ele>
        <time>2011-07-29T10:16:19Z</time>
      </trkpt>
      <trkpt lat="43.11804" lon="6.18699">
        <ele>1.65375</ele>
        <time>2011-07-29T10:16:30Z</time>
      </trkpt>
      <trkpt lat="43.11768" lon="6.18739">
        <ele>1.656237</ele>
        <time>2011-07-29T10:16:40Z</time>
      </trkpt>
      <trkpt lat="43.11732" lon="6.18778">
        <ele>1.8283</ele>
        <time>2011-07-29T10:16:51Z</time>
      </trkpt>
      <trkpt lat="43.11695" lon="6.1882">
        <ele>1.735225</ele>
        <time>2011-07-29T10:17:02Z</time>
      </trkpt>
      <trkpt lat="43.11668" lon="6.18872">
        <ele>1.499206</ele>
        <time>2011-07-29T10:17:12Z</time>
      </trkpt>
      <trkpt lat="43.11642" lon="6.18929">
        <ele>1.28785</ele>
        <time>2011-07-29T10:17:22Z</time>
      </trkpt>
      <trkpt lat="43.11617" lon="6.18986">
        <ele>1.2675</ele>
        <time>2011-07-29T10:17:32Z</time>
      </trkpt>
      <trkpt lat="43.11593" lon="6.19039">
        <ele>1.870266</ele>
        <time>2011-07-29T10:17:41Z</time>
      </trkpt>
      <trkpt lat="43.11566" lon="6.19096">
        <ele>2</ele>
        <time>2011-07-29T10:17:50Z</time>
      </trkpt>
      <trkpt lat="43.11541" lon="6.1915">
        <ele>2</ele>
        <time>2011-07-29T10:18:00Z</time>
      </trkpt>
      <trkpt lat="43.11514" lon="6.19205">
        <ele>1.904375</ele>
        <time>2011-07-29T10:18:11Z</time>
      </trkpt>
      <trkpt lat="43.11491" lon="6.19258">
        <ele>1.14</ele>
        <time>2011-07-29T10:18:21Z</time>
      </trkpt>
      <trkpt lat="43.1147" lon="6.19293">
        <ele>1</ele>
        <time>2011-07-29T10:18:33Z</time>
      </trkpt>
      <trkpt lat="43.11449" lon="6.19229">
        <ele>1.0565</ele>
        <time>2011-07-29T10:18:45Z</time>
      </trkpt>
      <trkpt lat="43.11431" lon="6.19169">
        <ele>1.18625</ele>
        <time>2011-07-29T10:18:56Z</time>
      </trkpt>
      <trkpt lat="43.11407" lon="6.19111">
        <ele>1.312156</ele>
        <time>2011-07-29T10:19:10Z</time>
      </trkpt>
      <trkpt lat="43.11383" lon="6.19053">
        <ele>1.623572</ele>
        <time>2011-07-29T10:19:23Z</time>
      </trkpt>
      <trkpt lat="43.11357" lon="6.19001">
        <ele>1.9</ele>
        <time>2011-07-29T10:19:38Z</time>
      </trkpt>
      <trkpt lat="43.11332" lon="6.1895">
        <ele>2</ele>
        <time>2011-07-29T10:20:25Z</time>
      </trkpt>
      <trkpt lat="43.11307" lon="6.18895">
        <ele>1.896688</ele>
        <time>2011-07-29T10:20:37Z</time>
      </trkpt>
      <trkpt lat="43.11278" lon="6.18847">
        <ele>2</ele>
        <time>2011-07-29T10:20:49Z</time>
      </trkpt>
      <trkpt lat="43.11251" lon="6.18793">
        <ele>2</ele>
        <time>2011-07-29T10:21:02Z</time>
      </trkpt>
      <trkpt lat="43.11225" lon="6.18739">
        <ele>1.818006</ele>
        <time>2011-07-29T10:21:14Z</time>
      </trkpt>
      <trkpt lat="43.11197" lon="6.18684">
        <ele>1.905716</ele>
        <time>2011-07-29T10:21:26Z</time>
      </trkpt>
      <trkpt lat="43.11172" lon="6.18634">
        <ele>1.5625</ele>
        <time>2011-07-29T10:21:38Z</time>
      </trkpt>
      <trkpt lat="43.11146" lon="6.18583">
        <ele>1.444141</ele>
        <time>2011-07-29T10:21:52Z</time>
      </trkpt>
      <trkpt lat="43.1112" lon="6.18532">
        <ele>1.325</ele>
        <time>2011-07-29T10:22:03Z</time>
      </trkpt>
      <trkpt lat="43.11092" lon="6.18475">
        <ele>1</ele>
        <time>2011-07-29T10:22:13Z</time>
      </trkpt>
      <trkpt lat="43.11066" lon="6.18422">
        <ele>1</ele>
        <time>2011-07-29T10:22:23Z</time>
      </trkpt>
      <trkpt lat="43.11039" lon="6.18368">
        <ele>1</ele>
        <time>2011-07-29T10:22:33Z</time>
      </trkpt>
      <trkpt lat="43.11012" lon="6.18316">
        <ele>1</ele>
        <time>2011-07-29T10:22:43Z</time>
      </trkpt>
      <trkpt lat="43.10985" lon="6.18262">
        <ele>1</ele>
        <time>2011-07-29T10:22:54Z</time>
      </trkpt>
      <trkpt lat="43.1096" lon="6.18212">
        <ele>1</ele>
        <time>2011-07-29T10:23:06Z</time>
      </trkpt>
      <trkpt lat="43.10936" lon="6.18158">
        <ele>1</ele>
        <time>2011-07-29T10:23:20Z</time>
      </trkpt>
      <trkpt lat="43.10907" lon="6.18106">
        <ele>1</ele>
        <time>2011-07-29T10:23:34Z</time>
      </trkpt>
      <trkpt lat="43.1088" lon="6.18053">
        <ele>1</ele>
        <time>2011-07-29T10:23:45Z</time>
      </trkpt>
      <trkpt lat="43.10854" lon="6.17998">
        <ele>1</ele>
        <time>2011-07-29T10:23:56Z</time>
      </trkpt>
      <trkpt lat="43.10826" lon="6.17946">
        <ele>1</ele>
        <time>2011-07-29T10:24:07Z</time>
      </trkpt>
      <trkpt lat="43.10801" lon="6.17895">
        <ele>1</ele>
        <time>2011-07-29T10:24:19Z</time>
      </trkpt>
      <trkpt lat="43.10771" lon="6.17844">
        <ele>1</ele>
        <time>2011-07-29T10:24:32Z</time>
      </trkpt>
      <trkpt lat="43.10741" lon="6.17797">
        <ele>1</ele>
        <time>2011-07-29T10:25:09Z</time>
      </trkpt>
      <trkpt lat="43.10708" lon="6.17748">
        <ele>1</ele>
        <time>2011-07-29T10:25:21Z</time>
      </trkpt>
      <trkpt lat="43.10672" lon="6.17702">
        <ele>1</ele>
        <time>2011-07-29T10:25:32Z</time>
      </trkpt>
      <trkpt lat="43.10638" lon="6.17665">
        <ele>1</ele>
        <time>2011-07-29T10:25:45Z</time>
      </trkpt>
      <trkpt lat="43.10598" lon="6.17624">
        <ele>1</ele>
        <time>2011-07-29T10:25:58Z</time>
      </trkpt>
      <trkpt lat="43.10568" lon="6.17577">
        <ele>1</ele>
        <time>2011-07-29T10:26:19Z</time>
      </trkpt>
      <trkpt lat="43.10524" lon="6.17551">
        <ele>1</ele>
        <time>2011-07-29T10:26:34Z</time>
      </trkpt>
      <trkpt lat="43.10486" lon="6.1751">
        <ele>1</ele>
        <time>2011-07-29T10:26:47Z</time>
      </trkpt>
      <trkpt lat="43.10449" lon="6.17475">
        <ele>1</ele>
        <time>2011-07-29T10:27:00Z</time>
      </trkpt>
      <trkpt lat="43.1041" lon="6.17435">
        <ele>1</ele>
        <time>2011-07-29T10:27:15Z</time>
      </trkpt>
      <trkpt lat="43.10372" lon="6.17397">
        <ele>1</ele>
        <time>2011-07-29T10:27:28Z</time>
      </trkpt>
      <trkpt lat="43.10334" lon="6.17359">
        <ele>1</ele>
        <time>2011-07-29T10:27:41Z</time>
      </trkpt>
      <trkpt lat="43.10297" lon="6.17321">
        <ele>1</ele>
        <time>2011-07-29T10:27:53Z</time>
      </trkpt>
      <trkpt lat="43.10259" lon="6.17283">
        <ele>1</ele>
        <time>2011-07-29T10:28:05Z</time>
      </trkpt>
      <trkpt lat="43.10222" lon="6.17244">
        <ele>1</ele>
        <time>2011-07-29T10:28:20Z</time>
      </trkpt>
      <trkpt lat="43.10186" lon="6.17209">
        <ele>1</ele>
        <time>2011-07-29T10:28:36Z</time>
      </trkpt>
      <trkpt lat="43.10146" lon="6.17169">
        <ele>1</ele>
        <time>2011-07-29T10:28:49Z</time>
      </trkpt>
      <trkpt lat="43.10108" lon="6.17131">
        <ele>1</ele>
        <time>2011-07-29T10:29:02Z</time>
      </trkpt>
      <trkpt lat="43.10071" lon="6.17094">
        <ele>0.9322</ele>
        <time>2011-07-29T10:29:15Z</time>
      </trkpt>
      <trkpt lat="43.10035" lon="6.17056">
        <ele>1</ele>
        <time>2011-07-29T10:29:31Z</time>
      </trkpt>
      <trkpt lat="43.10032" lon="6.17005">
        <ele>0.997662</ele>
        <time>2011-07-29T10:29:54Z</time>
      </trkpt>
      <trkpt lat="43.10075" lon="6.16973">
        <ele>1</ele>
        <time>2011-07-29T10:30:08Z</time>
      </trkpt>
      <trkpt lat="43.10115" lon="6.16937">
        <ele>1</ele>
        <time>2011-07-29T10:30:57Z</time>
      </trkpt>
      <trkpt lat="43.10149" lon="6.16899">
        <ele>1</ele>
        <time>2011-07-29T10:31:10Z</time>
      </trkpt>
      <trkpt lat="43.10185" lon="6.1686">
        <ele>1</ele>
        <time>2011-07-29T10:31:22Z</time>
      </trkpt>
      <trkpt lat="43.10222" lon="6.16822">
        <ele>1.165825</ele>
        <time>2011-07-29T10:31:34Z</time>
      </trkpt>
      <trkpt lat="43.10261" lon="6.16781">
        <ele>1.979731</ele>
        <time>2011-07-29T10:31:46Z</time>
      </trkpt>
      <trkpt lat="43.10299" lon="6.1674">
        <ele>2</ele>
        <time>2011-07-29T10:31:58Z</time>
      </trkpt>
      <trkpt lat="43.10311" lon="6.16728">
        <ele>2</ele>
        <time>2011-07-29T10:32:41Z</time>
      </trkpt>
      <trkpt lat="43.10274" lon="6.16769">
        <ele>2</ele>
        <time>2011-07-29T10:32:55Z</time>
      </trkpt>
      <trkpt lat="43.10236" lon="6.16808">
        <ele>1.57815</ele>
        <time>2011-07-29T10:33:07Z</time>
      </trkpt>
      <trkpt lat="43.102" lon="6.16848">
        <ele>1</ele>
        <time>2011-07-29T10:33:18Z</time>
      </trkpt>
      <trkpt lat="43.10158" lon="6.16893">
        <ele>1</ele>
        <time>2011-07-29T10:33:29Z</time>
      </trkpt>
      <trkpt lat="43.10119" lon="6.16935">
        <ele>1</ele>
        <time>2011-07-29T10:33:41Z</time>
      </trkpt>
      <trkpt lat="43.10081" lon="6.16967">
        <ele>1</ele>
        <time>2011-07-29T10:33:54Z</time>
      </trkpt>
      <trkpt lat="43.10041" lon="6.16999">
        <ele>1</ele>
        <time>2011-07-29T10:34:09Z</time>
      </trkpt>
      <trkpt lat="43.10008" lon="6.17022">
        <ele>0.793909</ele>
        <time>2011-07-29T10:34:42Z</time>
      </trkpt>
      <trkpt lat="43.09969" lon="6.16986">
        <ele>1</ele>
        <time>2011-07-29T10:34:57Z</time>
      </trkpt>
      <trkpt lat="43.0993" lon="6.16948">
        <ele>0.914412</ele>
        <time>2011-07-29T10:35:10Z</time>
      </trkpt>
      <trkpt lat="43.09891" lon="6.16911">
        <ele>0.805</ele>
        <time>2011-07-29T10:35:22Z</time>
      </trkpt>
      <trkpt lat="43.09852" lon="6.16872">
        <ele>0.9525</ele>
        <time>2011-07-29T10:35:35Z</time>
      </trkpt>
      <trkpt lat="43.09815" lon="6.16836">
        <ele>0.978484</ele>
        <time>2011-07-29T10:35:47Z</time>
      </trkpt>
      <trkpt lat="43.09777" lon="6.16797">
        <ele>1</ele>
        <time>2011-07-29T10:35:58Z</time>
      </trkpt>
      <trkpt lat="43.09739" lon="6.16758">
        <ele>0.743613</ele>
        <time>2011-07-29T10:36:09Z</time>
      </trkpt>
      <trkpt lat="43.097" lon="6.16719">
        <ele>1</ele>
        <time>2011-07-29T10:36:21Z</time>
      </trkpt>
      <trkpt lat="43.09662" lon="6.16682">
        <ele>0.908491</ele>
        <time>2011-07-29T10:36:33Z</time>
      </trkpt>
      <trkpt lat="43.09625" lon="6.16645">
        <ele>1</ele>
        <time>2011-07-29T10:36:48Z</time>
      </trkpt>
      <trkpt lat="43.09586" lon="6.16604">
        <ele>1</ele>
        <time>2011-07-29T10:37:01Z</time>
      </trkpt>
      <trkpt lat="43.0955" lon="6.16568">
        <ele>1</ele>
        <time>2011-07-29T10:37:12Z</time>
      </trkpt>
      <trkpt lat="43.09514" lon="6.16532">
        <ele>1</ele>
        <time>2011-07-29T10:37:23Z</time>
      </trkpt>
      <trkpt lat="43.09476" lon="6.16494">
        <ele>1</ele>
        <time>2011-07-29T10:37:33Z</time>
      </trkpt>
      <trkpt lat="43.09439" lon="6.16457">
        <ele>1</ele>
        <time>2011-07-29T10:37:43Z</time>
      </trkpt>
      <trkpt lat="43.09402" lon="6.1642">
        <ele>1</ele>
        <time>2011-07-29T10:37:54Z</time>
      </trkpt>
      <trkpt lat="43.09362" lon="6.1638">
        <ele>1</ele>
        <time>2011-07-29T10:38:06Z</time>
      </trkpt>
      <trkpt lat="43.09326" lon="6.16343">
        <ele>1</ele>
        <time>2011-07-29T10:38:21Z</time>
      </trkpt>
      <trkpt lat="43.09288" lon="6.16307">
        <ele>1</ele>
        <time>2011-07-29T10:38:33Z</time>
      </trkpt>
      <trkpt lat="43.0925" lon="6.1627">
        <ele>1</ele>
        <time>2011-07-29T10:38:46Z</time>
      </trkpt>
      <trkpt lat="43.09211" lon="6.16231">
        <ele>1</ele>
        <time>2011-07-29T10:38:59Z</time>
      </trkpt>
      <trkpt lat="43.09169" lon="6.16187">
        <ele>1</ele>
        <time>2011-07-29T10:39:11Z</time>
      </trkpt>
      <trkpt lat="43.09128" lon="6.16147">
        <ele>1</ele>
        <time>2011-07-29T10:39:21Z</time>
      </trkpt>
      <trkpt lat="43.09089" lon="6.16109">
        <ele>1</ele>
        <time>2011-07-29T10:39:31Z</time>
      </trkpt>
      <trkpt lat="43.0905" lon="6.16073">
        <ele>1</ele>
        <time>2011-07-29T10:39:43Z</time>
      </trkpt>
      <trkpt lat="43.09033" lon="6.16014">
        <ele>1</ele>
        <time>2011-07-29T10:40:04Z</time>
      </trkpt>
      <trkpt lat="43.08992" lon="6.16001">
        <ele>1</ele>
        <time>2011-07-29T10:42:17Z</time>
      </trkpt>
      <trkpt lat="43.0895" lon="6.15977">
        <ele>1</ele>
        <time>2011-07-29T10:42:28Z</time>
      </trkpt>
      <trkpt lat="43.08925" lon="6.15933">
        <ele>1</ele>
        <time>2011-07-29T10:42:45Z</time>
      </trkpt>
      <trkpt lat="43.08896" lon="6.15916">
        <ele>1</ele>
        <time>2011-07-29T10:43:33Z</time>
      </trkpt>
      <trkpt lat="43.08861" lon="6.15879">
        <ele>1</ele>
        <time>2011-07-29T10:43:46Z</time>
      </trkpt>
      <trkpt lat="43.08824" lon="6.15843">
        <ele>1</ele>
        <time>2011-07-29T10:43:58Z</time>
      </trkpt>
      <trkpt lat="43.08788" lon="6.15804">
        <ele>1</ele>
        <time>2011-07-29T10:44:11Z</time>
      </trkpt>
      <trkpt lat="43.08752" lon="6.15766">
        <ele>1</ele>
        <time>2011-07-29T10:44:45Z</time>
      </trkpt>
      <trkpt lat="43.08709" lon="6.15735">
        <ele>1</ele>
        <time>2011-07-29T10:45:00Z</time>
      </trkpt>
      <trkpt lat="43.08665" lon="6.15719">
        <ele>1</ele>
        <time>2011-07-29T10:45:15Z</time>
      </trkpt>
      <trkpt lat="43.08639" lon="6.15666">
        <ele>1</ele>
        <time>2011-07-29T10:45:52Z</time>
      </trkpt>
      <trkpt lat="43.08629" lon="6.15707">
        <ele>1</ele>
        <time>2011-07-29T10:46:07Z</time>
      </trkpt>
      <trkpt lat="43.08595" lon="6.15747">
        <ele>1</ele>
        <time>2011-07-29T10:46:19Z</time>
      </trkpt>
      <trkpt lat="43.0856" lon="6.15791">
        <ele>1</ele>
        <time>2011-07-29T10:46:34Z</time>
      </trkpt>
      <trkpt lat="43.0852" lon="6.1579">
        <ele>1</ele>
        <time>2011-07-29T10:46:52Z</time>
      </trkpt>
      <trkpt lat="43.08475" lon="6.15774">
        <ele>1</ele>
        <time>2011-07-29T10:47:10Z</time>
      </trkpt>
      <trkpt lat="43.0843" lon="6.15755">
        <ele>1</ele>
        <time>2011-07-29T10:47:25Z</time>
      </trkpt>
      <trkpt lat="43.08385" lon="6.15737">
        <ele>1</ele>
        <time>2011-07-29T10:47:37Z</time>
      </trkpt>
      <trkpt lat="43.0834" lon="6.15719">
        <ele>1</ele>
        <time>2011-07-29T10:47:53Z</time>
      </trkpt>
      <trkpt lat="43.08294" lon="6.15699">
        <ele>1</ele>
        <time>2011-07-29T10:48:09Z</time>
      </trkpt>
      <trkpt lat="43.08253" lon="6.15672">
        <ele>1</ele>
        <time>2011-07-29T10:48:26Z</time>
      </trkpt>
      <trkpt lat="43.08209" lon="6.15651">
        <ele>1</ele>
        <time>2011-07-29T10:48:42Z</time>
      </trkpt>
      <trkpt lat="43.08168" lon="6.15655">
        <ele>0.95875</ele>
        <time>2011-07-29T10:49:05Z</time>
      </trkpt>
      <trkpt lat="43.08124" lon="6.15646">
        <ele>1</ele>
        <time>2011-07-29T10:49:20Z</time>
      </trkpt>
      <trkpt lat="43.08078" lon="6.15632">
        <ele>1</ele>
        <time>2011-07-29T10:49:35Z</time>
      </trkpt>
      <trkpt lat="43.08037" lon="6.15619">
        <ele>1</ele>
        <time>2011-07-29T10:49:58Z</time>
      </trkpt>
      <trkpt lat="43.07992" lon="6.15595">
        <ele>0.857266</ele>
        <time>2011-07-29T10:50:12Z</time>
      </trkpt>
      <trkpt lat="43.07948" lon="6.15575">
        <ele>1</ele>
        <time>2011-07-29T10:50:25Z</time>
      </trkpt>
      <trkpt lat="43.07914" lon="6.15556">
        <ele>1</ele>
        <time>2011-07-29T10:51:17Z</time>
      </trkpt>
      <trkpt lat="43.07947" lon="6.15573">
        <ele>1</ele>
        <time>2011-07-29T10:51:41Z</time>
      </trkpt>
      <trkpt lat="43.0799" lon="6.15598">
        <ele>0.818509</ele>
        <time>2011-07-29T10:51:59Z</time>
      </trkpt>
      <trkpt lat="43.08021" lon="6.15631">
        <ele>1</ele>
        <time>2011-07-29T10:52:17Z</time>
      </trkpt>
      <trkpt lat="43.0801" lon="6.15695">
        <ele>0.915</ele>
        <time>2011-07-29T10:54:48Z</time>
      </trkpt>
      <trkpt lat="43.08002" lon="6.15737">
        <ele>0.7775</ele>
        <time>2011-07-29T10:55:17Z</time>
      </trkpt>
      <trkpt lat="43.08045" lon="6.15756">
        <ele>0.2625</ele>
        <time>2011-07-29T10:56:18Z</time>
      </trkpt>
      <trkpt lat="43.08043" lon="6.15721">
        <ele>0.33</ele>
        <time>2011-07-29T10:57:12Z</time>
      </trkpt>
      <trkpt lat="43.08054" lon="6.15675">
        <ele>0.575509</ele>
        <time>2011-07-29T11:16:08Z</time>
      </trkpt>
    </trkseg>
  </trk>
</gpx>